Select your language:
Crown of King Zvonimir race, Solin CRO   Hier könnte ihre Werbung stehen!  
  年龄组:   国家:   平均速度:   年龄组成绩榜:   
日期: 22.08.2025 Send Link
活动: 4° Canajagua Ultra Trail (PAN) 赛事具体事宜
跑/赛道: 55km 野外跑 此项赛事的历史最好成绩排行榜.
抵达终点者: 67 (53 男, 14 女) Multiple Finishers.
有资格参加最佳成绩排名:
成绩单: 链接 (统计时的数据来源。)
数据统计: Chang, Wenhui     08.05.2026 13:41
 
67 搜索结果 
总排名 成绩 姓,名 协会 国籍 出生年 男/女 男/女排名 年龄组 年龄组排名 平均速度 km/h 按年龄修改后的成绩
1 6:24:11 小时   Cedeno Gonzalez, Jose Euribiades   PAN  1992 1 M23  1 8.590 6:24:07 小时
2 6:36:42 小时   Gutierrez, Francisco   CHI  1983 2 M40  1 8.319 6:21:45 小时
3 6:44:34 小时   Varcasia, Jose   ITA  1986 3 M35  1 8.157 6:37:18 小时
4 6:59:04 小时   Pastor Ramos Herrera, Justo   PAN  1994 4 M23  2 7.875 6:59:04 小时
5 7:35:57 小时   Bontemps, Damien   FRA  1986 5 M35  2 7.238 7:27:45 小时
6 7:37:34 小时   Rodriguez, Diana   PAN  1983 1 W40  1 7.212 7:23:56 小时
7 7:52:47 小时   Baccarani, Gabriella   PAN  1989 2 W35  1 6.980 7:50:57 小时
8 7:53:52 小时   Coronado, Maickol   PAN  1983 6 M40  2 6.964 7:36:01 小时
9 7:59:52 小时   Labella, Rodrigo   ARG  1988 7 M35  3 6.877 7:55:36 小时
10 8:15:57 小时   Emmanuel Lopez, Rodrigo   PAN  1985 8 M35  4 6.654 8:04:09 小时
11 8:17:04 小时   Alberto Zuniga Escobar, Carlos   PAN  2001 9 M23  3 6.639 8:17:04 小时
12 8:22:08 小时   Chiari, Alfredo   PAN  1995 10 M23  4 6.572 8:22:08 小时
13 8:23:51 小时   Mata, Cristina   PAN  1986 3 W35  2 6.550 8:16:54 小时
14 8:43:49 小时   Mandarakas, Chemi   PAN  1972 11 M50  1 6.300 7:39:14 小时
15 8:47:58 小时   Gil, Adin   PAN  1994 12 M23  5 6.250 8:47:58 小时
16 8:50:56 小时   Angel Baules, Jose   PAN  1979 13 M45  1 6.215 8:14:22 小时
17 8:58:53 小时   de la Rosa Lasa, David Enrique   PAN  1999 14 M23  6 6.124 8:58:53 小时
18 9:01:21 小时   Pomares, Crescencio   PAN  1993 15 M23  7 6.096 9:01:21 小时
19 9:09:34 小时   McPherson, Guillermo   PAN  1997 16 M23  8 6.005 9:09:34 小时
20 9:10:57 小时   Dominguez Gonzalez, Evaristo Javier   PAN  1969 17 M55  1 5.990 7:50:08 小时
21 9:11:02 小时   Lasa, Ignacio   PAN  1972 18 M50  2 5.989 8:03:06 小时
22 9:12:53 小时   Bontemps, Johnny   USA  1984 19 M40  3 5.969 8:56:05 小时
23 9:14:33 小时   Lucia Arciniegas, Ana   PAN  1994 4 W23  1 5.951 9:14:33 小时
24 9:20:51 小时   Escudero, Ivan   PAN  1976 20 M45  2 5.884 8:29:09 小时
25 9:24:41 小时   Lemma, Emmanuel   ARG  1983 21 M40  4 5.844 9:03:24 小时
26 9:31:04 小时   Vergara, Joseph   PAN  1997 22 M23  9 5.779 9:31:04 小时
27 9:42:44 小时   Reyes, Jefferson   PAN  1999 23 M23  10 5.663 9:42:44 小时
28 9:45:32 小时   Caballero, Rodrigo   PAN  1993 24 M23  11 5.636 9:45:32 小时
29 9:51:58 小时   Gonzalez Macias, Alexander   PAN  1991 25 M23  12 5.575 9:51:16 小时
30 9:53:28 小时   de la Cruz, Ezequiel Enrique   PAN  1986 26 M35  5 5.561 9:42:48 小时
31 10:04:55 小时   Vegas, Pedro   VEN  1980 27 M40  5 5.455 9:27:58 小时
32 10:07:30 小时   Cordon, Mario   PAN  1985 28 M35  6 5.432 9:53:03 小时
33 10:08:39 小时   Barria, Angel   PAN  1991 29 M23  13 5.422 10:07:56 小时
34 10:10:46 小时   Cabassa, Pia Gabriela   PAN  1993 5 W23  2 5.403 10:10:46 小时
35 10:11:34 小时   Morales, Henry   PAN  1977 30 M45  3 5.396 9:19:58 小时
36 10:14:07 小时   Vega, Franklin   PAN  1979 31 M45  4 5.374 9:31:49 小时
37 10:22:00 小时   Bennett, Irving   PAN  1961 32 M60  1 5.305 8:12:04 小时
38 10:22:57 小时   Lorenzo Avila, Juan David   PAN  1990 33 M23  14 5.297 10:21:09 小时
39 10:25:03 小时   Smith, Francisco   PAN  1985 34 M35  7 5.280 10:10:11 小时
40 10:30:02 小时   Diaz, Jorge   PAN  1975 35 M45  5 5.238 9:27:02 小时
41 10:33:12 小时   Yerel Nunez, Ramses   PAN  1992 36 M23  15 5.212 10:33:05 小时
42 10:48:17 小时   Luis Binda, Jose   PAN  1978 37 M45  6 5.090 9:58:38 小时
43 10:49:40 小时   Garcia Dominguez, Felipe   PAN  1971 38 M50  3 5.080 9:24:30 小时
44 10:49:41 小时   Rincon, Christopher   PAN  1985 39 M35  8 5.079 10:34:14 小时
45 10:52:20 小时   Quintero, Danny   PAN  1973 40 M50  4 5.059 9:37:00 小时
46 10:52:50 小时   Londono Salinas, Alexandra   PAN  1989 6 W35  3 5.055 10:48:36 小时
47 10:53:04 小时   Puga Espino, Carlos Alberto   PAN  1977 41 M45  7 5.053 9:57:57 小时
48 10:53:33 小时   Chuljak, Carlos   PAN  1993 42 M23  16 5.049 10:53:33 小时
49 10:53:41 小时   Madrid, Sileska   PAN  1981 7 W40  2 5.048 10:25:04 小时
50 10:57:16 小时   Montecer, Manuel   PAN  1971 43 M50  5 5.021 9:31:06 小时
51 11:05:02 小时   Pitti Ortiz, Maximo   PAN  1977 44 M45  8 4.962 10:08:55 小时
52 11:09:18 小时   Gonzalez, Leython   PAN  1997 45 M23  17 4.931 11:09:18 小时
53 11:10:36 小时   Caez Rivera, Sara   PUR  1975 8 W45  1 4.921 10:02:20 小时
54 11:34:33 小时   Rodriguez Rivas, Fidel   PAN  1981 46 M40  6 4.751 10:57:32 小时
55 11:43:26 小时   Ortega, Katherine   PAN  1989 9 W35  4 4.691 11:40:42 小时
56 11:43:35 小时   Machado, Adrian   PAN  1990 47 M23  18 4.690 11:41:33 小时
57 11:43:37 小时   Paola Hernandez Rojas, Jenny   COL  1987 10 W35  5 4.690 11:36:44 小时
58 11:45:27 小时   Perez, Apsalon   PAN  1999 48 M23  19 4.678 11:45:27 小时
59 11:45:43 小时   Ibanez, Hernando   PAN  1973 49 M50  6 4.676 10:24:13 小时
60 11:45:50 小时   Gonzalez, Sarah   PAN  1987 11 W35  6 4.675 11:38:55 小时
61 11:46:00 小时   Martinez, Raquel   PAN  1982 12 W40  3 4.674 11:20:14 小时
62 11:46:12 小时   Con, Luis   PAN  2001 50 M23  20 4.673 11:46:12 小时
63 12:23:11 小时   Rojas, Gisela Tamara   PAN  1970 13 W50  1 4.440 10:26:26 小时
64 12:24:00 小时   Aizprua, Jocelyn   PAN  1989 14 W35  7 4.435 12:21:06 小时
65 12:55:00 小时   Vasquez, Augusto   PAN  1998 51 M23  21 4.258 12:55:00 小时
66 13:03:00 小时   Atehortua, Shoshann   PAN  1984 52 M40  7 4.215 12:39:12 小时
67 13:03:02 小时   Frias, David   PAN  1993 53 M23  22 4.214 13:03:02 小时